sensor_id;sensor_type;location;lat;lon;timestamp;P1;durP1;ratioP1;P2;durP2;ratioP2
33246;SDS011;19606;50.108;19.804;2022-08-21T00:00:21;55.95;;;33.05;;
33246;SDS011;19606;50.108;19.804;2022-08-21T00:02:55;56.75;;;32.25;;
33246;SDS011;19606;50.108;19.804;2022-08-21T00:05:22;48.30;;;31.83;;
33246;SDS011;19606;50.108;19.804;2022-08-21T00:07:48;61.30;;;31.10;;
33246;SDS011;19606;50.108;19.804;2022-08-21T00:10:16;43.80;;;30.77;;
33246;SDS011;19606;50.108;19.804;2022-08-21T00:12:43;52.00;;;31.20;;
33246;SDS011;19606;50.108;19.804;2022-08-21T00:15:10;59.90;;;34.53;;
33246;SDS011;19606;50.108;19.804;2022-08-21T00:17:37;58.60;;;33.97;;
33246;SDS011;19606;50.108;19.804;2022-08-21T00:20:04;58.78;;;33.83;;
33246;SDS011;19606;50.108;19.804;2022-08-21T00:22:30;65.57;;;34.85;;
33246;SDS011;19606;50.108;19.804;2022-08-21T00:24:57;70.70;;;36.75;;
33246;SDS011;19606;50.108;19.804;2022-08-21T00:27:23;75.63;;;40.67;;
33246;SDS011;19606;50.108;19.804;2022-08-21T00:29:49;66.10;;;38.35;;
33246;SDS011;19606;50.108;19.804;2022-08-21T00:32:19;70.68;;;38.35;;
33246;SDS011;19606;50.108;19.804;2022-08-21T00:34:45;62.65;;;37.00;;
33246;SDS011;19606;50.108;19.804;2022-08-21T00:37:11;66.93;;;37.00;;
33246;SDS011;19606;50.108;19.804;2022-08-21T00:39:38;72.72;;;37.78;;
33246;SDS011;19606;50.108;19.804;2022-08-21T00:42:04;68.47;;;36.25;;
33246;SDS011;19606;50.108;19.804;2022-08-21T00:44:30;69.25;;;37.53;;
33246;SDS011;19606;50.108;19.804;2022-08-21T00:46:56;68.10;;;37.65;;
33246;SDS011;19606;50.108;19.804;2022-08-21T00:49:22;60.22;;;34.65;;
33246;SDS011;19606;50.108;19.804;2022-08-21T00:51:50;69.32;;;36.58;;
33246;SDS011;19606;50.108;19.804;2022-08-21T00:54:17;70.22;;;36.17;;
33246;SDS011;19606;50.108;19.804;2022-08-21T00:56:45;68.10;;;38.05;;
33246;SDS011;19606;50.108;19.804;2022-08-21T00:59:11;72.50;;;40.85;;
33246;SDS011;19606;50.108;19.804;2022-08-21T01:01:38;73.47;;;39.08;;
33246;SDS011;19606;50.108;19.804;2022-08-21T01:04:04;70.63;;;36.83;;
33246;SDS011;19606;50.108;19.804;2022-08-21T01:06:30;64.30;;;35.88;;
33246;SDS011;19606;50.108;19.804;2022-08-21T01:08:57;63.00;;;33.03;;
33246;SDS011;19606;50.108;19.804;2022-08-21T01:11:23;59.28;;;33.25;;
33246;SDS011;19606;50.108;19.804;2022-08-21T01:13:49;54.53;;;33.03;;
33246;SDS011;19606;50.108;19.804;2022-08-21T01:16:17;56.05;;;33.03;;
33246;SDS011;19606;50.108;19.804;2022-08-21T01:18:44;55.58;;;33.13;;
33246;SDS011;19606;50.108;19.804;2022-08-21T01:21:15;57.17;;;33.78;;
33246;SDS011;19606;50.108;19.804;2022-08-21T01:23:43;64.57;;;35.63;;
33246;SDS011;19606;50.108;19.804;2022-08-21T01:26:10;57.03;;;35.42;;
33246;SDS011;19606;50.108;19.804;2022-08-21T01:28:38;53.30;;;33.80;;
33246;SDS011;19606;50.108;19.804;2022-08-21T01:31:06;55.15;;;33.70;;
33246;SDS011;19606;50.108;19.804;2022-08-21T01:33:33;62.70;;;34.63;;
33246;SDS011;19606;50.108;19.804;2022-08-21T01:35:59;53.65;;;33.05;;
33246;SDS011;19606;50.108;19.804;2022-08-21T01:38:25;62.13;;;36.15;;
33246;SDS011;19606;50.108;19.804;2022-08-21T01:40:51;53.25;;;31.65;;
33246;SDS011;19606;50.108;19.804;2022-08-21T01:43:17;51.05;;;30.90;;
33246;SDS011;19606;50.108;19.804;2022-08-21T01:45:44;51.60;;;31.90;;
33246;SDS011;19606;50.108;19.804;2022-08-21T01:48:10;61.63;;;33.38;;
33246;SDS011;19606;50.108;19.804;2022-08-21T01:50:36;52.47;;;32.03;;
33246;SDS011;19606;50.108;19.804;2022-08-21T01:53:02;56.58;;;31.08;;
33246;SDS011;19606;50.108;19.804;2022-08-21T01:55:28;52.60;;;31.60;;
33246;SDS011;19606;50.108;19.804;2022-08-21T01:57:54;52.83;;;31.90;;
33246;SDS011;19606;50.108;19.804;2022-08-21T02:00:21;55.65;;;32.47;;
33246;SDS011;19606;50.108;19.804;2022-08-21T02:02:47;57.30;;;33.55;;
33246;SDS011;19606;50.108;19.804;2022-08-21T02:05:14;69.38;;;39.25;;
33246;SDS011;19606;50.108;19.804;2022-08-21T02:07:42;75.80;;;41.78;;
33246;SDS011;19606;50.108;19.804;2022-08-21T02:10:09;67.30;;;35.80;;
33246;SDS011;19606;50.108;19.804;2022-08-21T02:12:36;59.33;;;34.38;;
33246;SDS011;19606;50.108;19.804;2022-08-21T02:15:03;66.05;;;35.70;;
33246;SDS011;19606;50.108;19.804;2022-08-21T02:17:41;64.78;;;36.90;;
33246;SDS011;19606;50.108;19.804;2022-08-21T02:20:08;77.72;;;34.35;;
33246;SDS011;19606;50.108;19.804;2022-08-21T02:22:34;73.43;;;37.25;;
33246;SDS011;19606;50.108;19.804;2022-08-21T02:25:00;77.13;;;38.83;;
33246;SDS011;19606;50.108;19.804;2022-08-21T02:27:27;76.65;;;41.00;;
33246;SDS011;19606;50.108;19.804;2022-08-21T02:29:54;89.80;;;43.40;;
33246;SDS011;19606;50.108;19.804;2022-08-21T02:32:20;80.90;;;42.42;;
33246;SDS011;19606;50.108;19.804;2022-08-21T02:34:46;95.00;;;43.75;;
33246;SDS011;19606;50.108;19.804;2022-08-21T02:37:13;84.57;;;43.22;;
33246;SDS011;19606;50.108;19.804;2022-08-21T02:39:39;92.15;;;44.13;;
33246;SDS011;19606;50.108;19.804;2022-08-21T02:42:05;77.60;;;41.70;;
33246;SDS011;19606;50.108;19.804;2022-08-21T02:44:31;83.32;;;42.10;;
33246;SDS011;19606;50.108;19.804;2022-08-21T02:46:57;84.65;;;42.90;;
33246;SDS011;19606;50.108;19.804;2022-08-21T02:49:24;83.88;;;42.85;;
33246;SDS011;19606;50.108;19.804;2022-08-21T02:51:50;85.90;;;46.53;;
33246;SDS011;19606;50.108;19.804;2022-08-21T02:54:16;92.78;;;44.42;;
33246;SDS011;19606;50.108;19.804;2022-08-21T02:56:42;89.47;;;46.55;;
33246;SDS011;19606;50.108;19.804;2022-08-21T02:59:08;86.90;;;44.53;;
33246;SDS011;19606;50.108;19.804;2022-08-21T03:01:34;86.88;;;43.53;;
33246;SDS011;19606;50.108;19.804;2022-08-21T03:04:01;84.20;;;43.95;;
33246;SDS011;19606;50.108;19.804;2022-08-21T03:06:27;85.90;;;44.83;;
33246;SDS011;19606;50.108;19.804;2022-08-21T03:08:54;96.95;;;47.28;;
33246;SDS011;19606;50.108;19.804;2022-08-21T03:11:20;89.15;;;46.10;;
33246;SDS011;19606;50.108;19.804;2022-08-21T03:13:46;83.85;;;46.38;;
33246;SDS011;19606;50.108;19.804;2022-08-21T03:16:12;95.28;;;48.58;;
33246;SDS011;19606;50.108;19.804;2022-08-21T03:18:39;98.00;;;47.75;;
33246;SDS011;19606;50.108;19.804;2022-08-21T03:21:06;93.68;;;47.38;;
33246;SDS011;19606;50.108;19.804;2022-08-21T03:23:32;82.90;;;43.95;;
33246;SDS011;19606;50.108;19.804;2022-08-21T03:25:58;89.53;;;46.22;;
33246;SDS011;19606;50.108;19.804;2022-08-21T03:28:24;91.15;;;44.40;;
33246;SDS011;19606;50.108;19.804;2022-08-21T03:30:50;86.15;;;44.40;;
33246;SDS011;19606;50.108;19.804;2022-08-21T03:33:17;82.75;;;43.92;;
33246;SDS011;19606;50.108;19.804;2022-08-21T03:35:43;86.78;;;44.17;;
33246;SDS011;19606;50.108;19.804;2022-08-21T03:38:10;82.18;;;42.65;;
33246;SDS011;19606;50.108;19.804;2022-08-21T03:40:38;82.47;;;42.15;;
33246;SDS011;19606;50.108;19.804;2022-08-21T03:43:04;88.32;;;43.08;;
33246;SDS011;19606;50.108;19.804;2022-08-21T03:45:31;87.20;;;45.88;;
33246;SDS011;19606;50.108;19.804;2022-08-21T03:47:58;81.15;;;42.42;;
33246;SDS011;19606;50.108;19.804;2022-08-21T03:50:26;80.57;;;41.53;;
33246;SDS011;19606;50.108;19.804;2022-08-21T03:52:52;76.00;;;43.22;;
33246;SDS011;19606;50.108;19.804;2022-08-21T03:55:18;72.63;;;39.03;;
33246;SDS011;19606;50.108;19.804;2022-08-21T03:57:44;75.13;;;40.30;;
33246;SDS011;19606;50.108;19.804;2022-08-21T04:00:11;76.72;;;41.72;;
33246;SDS011;19606;50.108;19.804;2022-08-21T04:02:38;74.50;;;42.67;;
33246;SDS011;19606;50.108;19.804;2022-08-21T04:05:05;85.03;;;43.65;;
33246;SDS011;19606;50.108;19.804;2022-08-21T04:07:31;80.40;;;44.03;;
33246;SDS011;19606;50.108;19.804;2022-08-21T04:09:57;85.63;;;44.50;;
33246;SDS011;19606;50.108;19.804;2022-08-21T04:12:23;82.40;;;43.17;;
33246;SDS011;19606;50.108;19.804;2022-08-21T04:14:49;86.82;;;44.42;;
33246;SDS011;19606;50.108;19.804;2022-08-21T04:17:16;91.10;;;46.92;;
33246;SDS011;19606;50.108;19.804;2022-08-21T04:19:42;97.97;;;48.08;;
33246;SDS011;19606;50.108;19.804;2022-08-21T04:22:08;97.95;;;48.05;;
33246;SDS011;19606;50.108;19.804;2022-08-21T04:24:35;87.47;;;47.08;;
33246;SDS011;19606;50.108;19.804;2022-08-21T04:27:01;79.65;;;44.90;;
33246;SDS011;19606;50.108;19.804;2022-08-21T04:29:27;82.28;;;45.97;;
33246;SDS011;19606;50.108;19.804;2022-08-21T04:31:53;82.93;;;44.38;;
33246;SDS011;19606;50.108;19.804;2022-08-21T04:34:20;75.60;;;46.30;;
33246;SDS011;19606;50.108;19.804;2022-08-21T04:36:46;77.10;;;42.92;;
33246;SDS011;19606;50.108;19.804;2022-08-21T04:39:12;70.65;;;43.83;;
33246;SDS011;19606;50.108;19.804;2022-08-21T04:41:38;76.20;;;44.17;;
33246;SDS011;19606;50.108;19.804;2022-08-21T04:44:04;74.05;;;42.97;;
33246;SDS011;19606;50.108;19.804;2022-08-21T04:46:31;75.25;;;43.90;;
33246;SDS011;19606;50.108;19.804;2022-08-21T04:48:57;78.38;;;46.55;;
33246;SDS011;19606;50.108;19.804;2022-08-21T04:51:24;74.13;;;45.50;;
33246;SDS011;19606;50.108;19.804;2022-08-21T04:59:04;74.55;;;45.67;;
33246;SDS011;19606;50.108;19.804;2022-08-21T05:01:32;70.88;;;44.95;;
33246;SDS011;19606;50.108;19.804;2022-08-21T05:03:59;74.20;;;44.80;;
33246;SDS011;19606;50.108;19.804;2022-08-21T05:06:27;73.75;;;46.67;;
33246;SDS011;19606;50.108;19.804;2022-08-21T05:08:54;72.63;;;45.78;;
33246;SDS011;19606;50.108;19.804;2022-08-21T05:11:21;76.10;;;44.75;;
33246;SDS011;19606;50.108;19.804;2022-08-21T05:13:47;64.15;;;42.15;;
33246;SDS011;19606;50.108;19.804;2022-08-21T05:16:13;71.65;;;43.42;;
33246;SDS011;19606;50.108;19.804;2022-08-21T05:18:40;71.88;;;43.17;;
33246;SDS011;19606;50.108;19.804;2022-08-21T05:21:06;66.43;;;42.85;;
33246;SDS011;19606;50.108;19.804;2022-08-21T05:23:32;64.68;;;41.28;;
33246;SDS011;19606;50.108;19.804;2022-08-21T05:25:59;59.13;;;39.20;;
33246;SDS011;19606;50.108;19.804;2022-08-21T05:28:26;51.83;;;36.83;;
33246;SDS011;19606;50.108;19.804;2022-08-21T05:30:52;58.97;;;37.75;;
33246;SDS011;19606;50.108;19.804;2022-08-21T05:33:18;52.33;;;35.22;;
33246;SDS011;19606;50.108;19.804;2022-08-21T05:35:44;53.30;;;34.53;;
33246;SDS011;19606;50.108;19.804;2022-08-21T05:38:11;46.30;;;32.65;;
33246;SDS011;19606;50.108;19.804;2022-08-21T05:40:37;62.45;;;39.92;;
33246;SDS011;19606;50.108;19.804;2022-08-21T05:43:03;63.97;;;39.80;;
33246;SDS011;19606;50.108;19.804;2022-08-21T05:45:30;68.60;;;41.83;;
33246;SDS011;19606;50.108;19.804;2022-08-21T05:47:56;68.85;;;41.17;;
33246;SDS011;19606;50.108;19.804;2022-08-21T05:50:23;64.63;;;38.85;;
33246;SDS011;19606;50.108;19.804;2022-08-21T05:52:49;58.20;;;38.88;;
33246;SDS011;19606;50.108;19.804;2022-08-21T05:55:15;57.78;;;38.75;;
33246;SDS011;19606;50.108;19.804;2022-08-21T05:57:41;59.83;;;38.67;;
33246;SDS011;19606;50.108;19.804;2022-08-21T06:00:08;54.08;;;36.40;;
33246;SDS011;19606;50.108;19.804;2022-08-21T06:02:37;52.47;;;36.60;;
33246;SDS011;19606;50.108;19.804;2022-08-21T06:05:03;56.25;;;34.65;;
33246;SDS011;19606;50.108;19.804;2022-08-21T06:07:29;58.70;;;36.40;;
33246;SDS011;19606;50.108;19.804;2022-08-21T06:09:55;56.88;;;36.60;;
33246;SDS011;19606;50.108;19.804;2022-08-21T06:12:21;55.08;;;37.33;;
33246;SDS011;19606;50.108;19.804;2022-08-21T06:14:47;53.75;;;36.20;;
33246;SDS011;19606;50.108;19.804;2022-08-21T06:17:13;53.38;;;32.05;;
33246;SDS011;19606;50.108;19.804;2022-08-21T06:19:40;51.13;;;35.13;;
33246;SDS011;19606;50.108;19.804;2022-08-21T06:22:06;55.28;;;33.78;;
33246;SDS011;19606;50.108;19.804;2022-08-21T06:24:32;53.58;;;33.35;;
33246;SDS011;19606;50.108;19.804;2022-08-21T06:27:03;49.20;;;33.50;;
33246;SDS011;19606;50.108;19.804;2022-08-21T06:29:29;45.85;;;31.40;;
33246;SDS011;19606;50.108;19.804;2022-08-21T06:31:56;42.08;;;30.05;;
33246;SDS011;19606;50.108;19.804;2022-08-21T06:34:22;47.60;;;31.38;;
33246;SDS011;19606;50.108;19.804;2022-08-21T06:36:48;44.10;;;30.77;;
33246;SDS011;19606;50.108;19.804;2022-08-21T06:39:14;41.90;;;28.90;;
33246;SDS011;19606;50.108;19.804;2022-08-21T06:41:40;49.72;;;28.58;;
33246;SDS011;19606;50.108;19.804;2022-08-21T06:44:06;42.25;;;28.13;;
33246;SDS011;19606;50.108;19.804;2022-08-21T06:46:32;44.63;;;29.95;;
33246;SDS011;19606;50.108;19.804;2022-08-21T06:48:58;48.60;;;30.67;;
33246;SDS011;19606;50.108;19.804;2022-08-21T06:51:25;44.15;;;30.83;;
33246;SDS011;19606;50.108;19.804;2022-08-21T06:53:51;44.45;;;30.48;;
33246;SDS011;19606;50.108;19.804;2022-08-21T06:56:17;42.63;;;28.73;;
33246;SDS011;19606;50.108;19.804;2022-08-21T06:58:43;43.58;;;30.10;;
33246;SDS011;19606;50.108;19.804;2022-08-21T07:01:10;44.05;;;30.83;;
33246;SDS011;19606;50.108;19.804;2022-08-21T07:03:41;42.80;;;28.75;;
33246;SDS011;19606;50.108;19.804;2022-08-21T07:06:08;44.78;;;30.80;;
33246;SDS011;19606;50.108;19.804;2022-08-21T07:08:35;40.72;;;28.67;;
33246;SDS011;19606;50.108;19.804;2022-08-21T07:11:02;40.70;;;27.65;;
33246;SDS011;19606;50.108;19.804;2022-08-21T07:13:29;45.85;;;30.45;;
33246;SDS011;19606;50.108;19.804;2022-08-21T07:15:55;40.28;;;28.80;;
33246;SDS011;19606;50.108;19.804;2022-08-21T07:18:21;40.05;;;29.08;;
33246;SDS011;19606;50.108;19.804;2022-08-21T07:20:47;38.25;;;28.70;;
33246;SDS011;19606;50.108;19.804;2022-08-21T07:23:24;42.17;;;28.17;;
33246;SDS011;19606;50.108;19.804;2022-08-21T07:25:52;38.55;;;28.10;;
33246;SDS011;19606;50.108;19.804;2022-08-21T07:28:18;46.15;;;29.08;;
33246;SDS011;19606;50.108;19.804;2022-08-21T07:30:44;45.03;;;27.25;;
33246;SDS011;19606;50.108;19.804;2022-08-21T07:33:10;38.88;;;27.48;;
33246;SDS011;19606;50.108;19.804;2022-08-21T07:35:36;41.63;;;27.85;;
33246;SDS011;19606;50.108;19.804;2022-08-21T07:38:02;37.45;;;27.20;;
33246;SDS011;19606;50.108;19.804;2022-08-21T07:40:29;43.25;;;27.33;;
33246;SDS011;19606;50.108;19.804;2022-08-21T07:42:55;43.55;;;29.30;;
33246;SDS011;19606;50.108;19.804;2022-08-21T07:45:22;40.55;;;28.92;;
33246;SDS011;19606;50.108;19.804;2022-08-21T07:47:49;36.78;;;27.88;;
33246;SDS011;19606;50.108;19.804;2022-08-21T07:50:19;40.47;;;30.08;;
33246;SDS011;19606;50.108;19.804;2022-08-21T07:52:45;39.30;;;29.75;;
33246;SDS011;19606;50.108;19.804;2022-08-21T07:55:13;36.75;;;28.45;;
33246;SDS011;19606;50.108;19.804;2022-08-21T07:57:40;35.33;;;27.13;;
33246;SDS011;19606;50.108;19.804;2022-08-21T08:00:07;37.33;;;27.73;;
33246;SDS011;19606;50.108;19.804;2022-08-21T08:02:34;35.88;;;27.25;;
33246;SDS011;19606;50.108;19.804;2022-08-21T08:05:02;42.50;;;26.67;;
33246;SDS011;19606;50.108;19.804;2022-08-21T08:07:28;36.83;;;25.70;;
33246;SDS011;19606;50.108;19.804;2022-08-21T08:09:54;38.90;;;26.75;;
33246;SDS011;19606;50.108;19.804;2022-08-21T08:12:20;35.78;;;26.52;;
33246;SDS011;19606;50.108;19.804;2022-08-21T08:14:47;36.92;;;27.48;;
33246;SDS011;19606;50.108;19.804;2022-08-21T08:17:13;41.05;;;26.33;;
33246;SDS011;19606;50.108;19.804;2022-08-21T08:19:39;41.35;;;26.15;;
33246;SDS011;19606;50.108;19.804;2022-08-21T08:22:15;31.42;;;25.92;;
33246;SDS011;19606;50.108;19.804;2022-08-21T08:24:44;48.03;;;26.27;;
33246;SDS011;19606;50.108;19.804;2022-08-21T08:27:10;42.80;;;27.05;;
33246;SDS011;19606;50.108;19.804;2022-08-21T08:29:36;44.30;;;26.73;;
33246;SDS011;19606;50.108;19.804;2022-08-21T08:32:03;36.70;;;25.98;;
33246;SDS011;19606;50.108;19.804;2022-08-21T08:34:30;36.55;;;25.50;;
33246;SDS011;19606;50.108;19.804;2022-08-21T08:36:56;41.58;;;26.88;;
33246;SDS011;19606;50.108;19.804;2022-08-21T08:39:25;37.53;;;25.27;;
33246;SDS011;19606;50.108;19.804;2022-08-21T08:42:26;39.75;;;26.35;;
33246;SDS011;19606;50.108;19.804;2022-08-21T08:44:44;33.70;;;24.60;;
33246;SDS011;19606;50.108;19.804;2022-08-21T08:47:11;36.80;;;25.63;;
33246;SDS011;19606;50.108;19.804;2022-08-21T08:52:28;36.80;;;26.50;;
33246;SDS011;19606;50.108;19.804;2022-08-21T08:55:00;38.33;;;28.17;;
33246;SDS011;19606;50.108;19.804;2022-08-21T08:57:27;33.45;;;26.02;;
33246;SDS011;19606;50.108;19.804;2022-08-21T08:59:53;40.08;;;28.52;;
33246;SDS011;19606;50.108;19.804;2022-08-21T09:02:21;38.15;;;28.05;;
33246;SDS011;19606;50.108;19.804;2022-08-21T09:04:52;39.28;;;26.77;;
33246;SDS011;19606;50.108;19.804;2022-08-21T09:15:21;40.67;;;30.35;;
33246;SDS011;19606;50.108;19.804;2022-08-21T09:25:45;41.45;;;29.83;;
33246;SDS011;19606;50.108;19.804;2022-08-21T09:28:11;38.53;;;29.33;;
33246;SDS011;19606;50.108;19.804;2022-08-21T09:30:40;41.97;;;29.33;;
33246;SDS011;19606;50.108;19.804;2022-08-21T09:33:06;39.45;;;29.88;;
33246;SDS011;19606;50.108;19.804;2022-08-21T09:35:32;38.72;;;27.73;;
33246;SDS011;19606;50.108;19.804;2022-08-21T09:38:02;40.95;;;30.65;;
33246;SDS011;19606;50.108;19.804;2022-08-21T09:43:02;41.15;;;30.83;;
33246;SDS011;19606;50.108;19.804;2022-08-21T09:45:29;41.00;;;30.02;;
33246;SDS011;19606;50.108;19.804;2022-08-21T09:47:55;45.40;;;32.22;;
33246;SDS011;19606;50.108;19.804;2022-08-21T09:50:25;43.97;;;30.38;;
33246;SDS011;19606;50.108;19.804;2022-08-21T09:52:53;37.55;;;29.85;;
33246;SDS011;19606;50.108;19.804;2022-08-21T09:55:21;43.22;;;29.40;;
33246;SDS011;19606;50.108;19.804;2022-08-21T09:58:07;34.08;;;28.08;;
33246;SDS011;19606;50.108;19.804;2022-08-21T10:00:33;33.92;;;28.35;;
33246;SDS011;19606;50.108;19.804;2022-08-21T10:05:37;34.70;;;27.52;;
33246;SDS011;19606;50.108;19.804;2022-08-21T10:08:04;40.30;;;31.17;;
33246;SDS011;19606;50.108;19.804;2022-08-21T10:10:36;51.65;;;35.20;;
33246;SDS011;19606;50.108;19.804;2022-08-21T10:13:17;44.55;;;33.35;;
33246;SDS011;19606;50.108;19.804;2022-08-21T10:18:48;48.25;;;33.55;;
33246;SDS011;19606;50.108;19.804;2022-08-21T10:21:29;40.83;;;30.35;;
33246;SDS011;19606;50.108;19.804;2022-08-21T10:26:35;42.72;;;28.60;;
33246;SDS011;19606;50.108;19.804;2022-08-21T10:29:39;40.67;;;28.92;;
33246;SDS011;19606;50.108;19.804;2022-08-21T10:32:02;38.90;;;30.05;;
33246;SDS011;19606;50.108;19.804;2022-08-21T10:34:37;42.15;;;29.38;;
33246;SDS011;19606;50.108;19.804;2022-08-21T10:39:35;43.67;;;29.63;;
33246;SDS011;19606;50.108;19.804;2022-08-21T10:42:12;37.33;;;27.27;;
33246;SDS011;19606;50.108;19.804;2022-08-21T10:47:13;41.42;;;26.33;;
33246;SDS011;19606;50.108;19.804;2022-08-21T10:52:47;36.78;;;26.30;;
33246;SDS011;19606;50.108;19.804;2022-08-21T10:55:31;35.10;;;26.08;;
33246;SDS011;19606;50.108;19.804;2022-08-21T10:57:58;31.75;;;25.20;;
33246;SDS011;19606;50.108;19.804;2022-08-21T11:00:28;39.47;;;26.08;;
33246;SDS011;19606;50.108;19.804;2022-08-21T11:02:57;33.33;;;25.75;;
33246;SDS011;19606;50.108;19.804;2022-08-21T11:08:01;34.08;;;24.10;;
33246;SDS011;19606;50.108;19.804;2022-08-21T11:13:47;27.25;;;19.95;;
33246;SDS011;19606;50.108;19.804;2022-08-21T11:18:29;24.77;;;16.58;;
33246;SDS011;19606;50.108;19.804;2022-08-21T11:21:12;19.27;;;15.80;;
33246;SDS011;19606;50.108;19.804;2022-08-21T11:23:43;19.67;;;14.32;;
33246;SDS011;19606;50.108;19.804;2022-08-21T11:26:15;20.77;;;13.75;;
33246;SDS011;19606;50.108;19.804;2022-08-21T11:28:48;20.25;;;13.98;;
33246;SDS011;19606;50.108;19.804;2022-08-21T11:36:16;20.73;;;11.63;;
33246;SDS011;19606;50.108;19.804;2022-08-21T11:38:47;19.30;;;11.35;;
33246;SDS011;19606;50.108;19.804;2022-08-21T11:41:21;11.90;;;8.98;;
33246;SDS011;19606;50.108;19.804;2022-08-21T11:44:02;20.80;;;10.05;;
33246;SDS011;19606;50.108;19.804;2022-08-21T11:46:49;14.25;;;8.25;;
33246;SDS011;19606;50.108;19.804;2022-08-21T11:51:57;21.38;;;10.55;;
33246;SDS011;19606;50.108;19.804;2022-08-21T11:56:52;17.80;;;8.75;;
33246;SDS011;19606;50.108;19.804;2022-08-21T11:59:21;15.18;;;8.23;;
33246;SDS011;19606;50.108;19.804;2022-08-21T12:01:49;14.25;;;7.85;;
33246;SDS011;19606;50.108;19.804;2022-08-21T12:04:24;10.30;;;6.72;;
33246;SDS011;19606;50.108;19.804;2022-08-21T12:06:52;9.65;;;6.28;;
33246;SDS011;19606;50.108;19.804;2022-08-21T12:12:02;10.85;;;6.43;;
33246;SDS011;19606;50.108;19.804;2022-08-21T12:14:36;9.52;;;5.45;;
33246;SDS011;19606;50.108;19.804;2022-08-21T12:17:06;9.15;;;6.10;;
33246;SDS011;19606;50.108;19.804;2022-08-21T12:19:32;9.27;;;6.40;;
33246;SDS011;19606;50.108;19.804;2022-08-21T12:29:39;7.20;;;3.80;;
33246;SDS011;19606;50.108;19.804;2022-08-21T12:34:38;8.05;;;3.58;;
33246;SDS011;19606;50.108;19.804;2022-08-21T12:37:22;4.82;;;3.45;;
33246;SDS011;19606;50.108;19.804;2022-08-21T12:39:52;3.33;;;2.95;;
33246;SDS011;19606;50.108;19.804;2022-08-21T12:42:20;4.35;;;3.03;;
33246;SDS011;19606;50.108;19.804;2022-08-21T12:44:49;6.90;;;3.30;;
33246;SDS011;19606;50.108;19.804;2022-08-21T12:47:19;9.05;;;3.05;;
33246;SDS011;19606;50.108;19.804;2022-08-21T12:52:17;9.50;;;2.95;;
33246;SDS011;19606;50.108;19.804;2022-08-21T12:54:45;7.00;;;3.35;;
33246;SDS011;19606;50.108;19.804;2022-08-21T12:57:22;4.57;;;3.33;;
33246;SDS011;19606;50.108;19.804;2022-08-21T12:59:56;5.88;;;3.22;;
33246;SDS011;19606;50.108;19.804;2022-08-21T13:02:25;4.88;;;3.13;;
33246;SDS011;19606;50.108;19.804;2022-08-21T13:04:52;4.43;;;2.75;;
33246;SDS011;19606;50.108;19.804;2022-08-21T13:07:29;6.45;;;3.50;;
33246;SDS011;19606;50.108;19.804;2022-08-21T13:10:07;4.55;;;2.83;;
33246;SDS011;19606;50.108;19.804;2022-08-21T13:12:40;5.20;;;2.97;;
33246;SDS011;19606;50.108;19.804;2022-08-21T13:15:07;6.57;;;3.80;;
33246;SDS011;19606;50.108;19.804;2022-08-21T13:17:35;7.63;;;5.00;;
33246;SDS011;19606;50.108;19.804;2022-08-21T13:20:04;7.40;;;3.40;;
33246;SDS011;19606;50.108;19.804;2022-08-21T13:22:30;5.55;;;3.40;;
33246;SDS011;19606;50.108;19.804;2022-08-21T13:24:57;5.40;;;3.13;;
33246;SDS011;19606;50.108;19.804;2022-08-21T13:27:32;11.73;;;9.50;;
33246;SDS011;19606;50.108;19.804;2022-08-21T13:30:06;6.40;;;3.30;;
33246;SDS011;19606;50.108;19.804;2022-08-21T13:32:33;9.32;;;3.75;;
33246;SDS011;19606;50.108;19.804;2022-08-21T13:35:09;5.45;;;3.53;;
33246;SDS011;19606;50.108;19.804;2022-08-21T13:37:37;7.05;;;3.50;;
33246;SDS011;19606;50.108;19.804;2022-08-21T13:40:06;9.95;;;3.55;;
33246;SDS011;19606;50.108;19.804;2022-08-21T13:42:32;4.22;;;2.45;;
33246;SDS011;19606;50.108;19.804;2022-08-21T13:44:59;4.30;;;2.65;;
33246;SDS011;19606;50.108;19.804;2022-08-21T13:47:25;3.85;;;2.85;;
33246;SDS011;19606;50.108;19.804;2022-08-21T13:49:51;4.50;;;2.45;;
33246;SDS011;19606;50.108;19.804;2022-08-21T13:52:20;3.75;;;2.58;;
33246;SDS011;19606;50.108;19.804;2022-08-21T13:55:19;3.65;;;2.40;;
33246;SDS011;19606;50.108;19.804;2022-08-21T13:57:38;4.00;;;2.67;;
33246;SDS011;19606;50.108;19.804;2022-08-21T14:00:17;3.05;;;2.75;;
33246;SDS011;19606;50.108;19.804;2022-08-21T14:02:45;3.28;;;2.28;;
33246;SDS011;19606;50.108;19.804;2022-08-21T14:05:24;5.22;;;2.88;;
33246;SDS011;19606;50.108;19.804;2022-08-21T14:08:02;6.53;;;2.88;;
33246;SDS011;19606;50.108;19.804;2022-08-21T14:10:29;3.08;;;2.78;;
33246;SDS011;19606;50.108;19.804;2022-08-21T14:13:01;6.00;;;3.17;;
33246;SDS011;19606;50.108;19.804;2022-08-21T14:15:30;7.47;;;3.22;;
33246;SDS011;19606;50.108;19.804;2022-08-21T14:18:09;8.57;;;4.70;;
33246;SDS011;19606;50.108;19.804;2022-08-21T14:20:38;5.18;;;3.42;;
33246;SDS011;19606;50.108;19.804;2022-08-21T14:23:04;5.82;;;3.30;;
33246;SDS011;19606;50.108;19.804;2022-08-21T14:25:37;3.70;;;2.97;;
33246;SDS011;19606;50.108;19.804;2022-08-21T14:32:56;6.40;;;2.95;;
33246;SDS011;19606;50.108;19.804;2022-08-21T14:35:22;4.15;;;3.60;;
33246;SDS011;19606;50.108;19.804;2022-08-21T14:37:48;4.20;;;3.42;;
33246;SDS011;19606;50.108;19.804;2022-08-21T14:40:19;5.15;;;4.03;;
33246;SDS011;19606;50.108;19.804;2022-08-21T14:42:45;4.32;;;3.92;;
33246;SDS011;19606;50.108;19.804;2022-08-21T14:45:19;6.57;;;4.30;;
33246;SDS011;19606;50.108;19.804;2022-08-21T14:47:47;5.93;;;4.32;;
33246;SDS011;19606;50.108;19.804;2022-08-21T14:50:13;6.18;;;4.07;;
33246;SDS011;19606;50.108;19.804;2022-08-21T14:52:39;9.00;;;5.00;;
33246;SDS011;19606;50.108;19.804;2022-08-21T14:55:06;6.57;;;4.75;;
33246;SDS011;19606;50.108;19.804;2022-08-21T14:57:33;5.13;;;4.28;;
33246;SDS011;19606;50.108;19.804;2022-08-21T15:00:00;6.63;;;5.25;;
33246;SDS011;19606;50.108;19.804;2022-08-21T15:02:26;9.70;;;5.47;;
33246;SDS011;19606;50.108;19.804;2022-08-21T15:04:52;6.65;;;6.05;;
33246;SDS011;19606;50.108;19.804;2022-08-21T15:07:17;7.90;;;7.20;;
33246;SDS011;19606;50.108;19.804;2022-08-21T15:09:44;8.65;;;7.85;;
33246;SDS011;19606;50.108;19.804;2022-08-21T15:12:10;14.68;;;7.35;;
33246;SDS011;19606;50.108;19.804;2022-08-21T15:14:38;9.38;;;8.18;;
33246;SDS011;19606;50.108;19.804;2022-08-21T15:17:08;11.85;;;9.38;;
33246;SDS011;19606;50.108;19.804;2022-08-21T15:19:35;10.50;;;9.18;;
33246;SDS011;19606;50.108;19.804;2022-08-21T15:22:02;10.20;;;9.15;;
33246;SDS011;19606;50.108;19.804;2022-08-21T15:24:29;11.23;;;8.73;;
33246;SDS011;19606;50.108;19.804;2022-08-21T15:26:58;14.00;;;9.80;;
33246;SDS011;19606;50.108;19.804;2022-08-21T15:29:25;10.57;;;9.45;;
33246;SDS011;19606;50.108;19.804;2022-08-21T15:31:56;9.90;;;7.88;;
33246;SDS011;19606;50.108;19.804;2022-08-21T15:34:23;11.18;;;8.73;;
33246;SDS011;19606;50.108;19.804;2022-08-21T15:36:50;9.40;;;8.07;;
33246;SDS011;19606;50.108;19.804;2022-08-21T15:39:16;11.13;;;9.07;;